createdAt,value
2022-12-01T00:00:07.160Z,15.40
2022-12-01T00:01:40.259Z,15.30
2022-12-01T00:03:19.750Z,15.60
2022-12-01T00:04:51.639Z,15.10
2022-12-01T00:06:23.537Z,15.10
2022-12-01T00:07:55.571Z,16.10
2022-12-01T00:09:46.114Z,14.80
2022-12-01T00:11:18.079Z,15.40
2022-12-01T00:12:49.886Z,16.20
2022-12-01T00:14:21.888Z,16.10
2022-12-01T00:15:53.647Z,16.00
2022-12-01T00:17:25.366Z,15.70
2022-12-01T00:19:00.780Z,14.60
2022-12-01T00:20:35.870Z,15.30
2022-12-01T00:22:08.175Z,13.90
2022-12-01T00:23:43.851Z,14.70
2022-12-01T00:25:18.725Z,15.90
2022-12-01T00:26:50.511Z,15.10
2022-12-01T00:28:22.301Z,15.90
2022-12-01T00:29:55.396Z,15.50
2022-12-01T00:31:28.029Z,16.60
2022-12-01T00:32:59.841Z,16.80
2022-12-01T00:34:31.644Z,16.30
2022-12-01T00:36:04.498Z,17.20
2022-12-01T00:39:21.405Z,17.30
2022-12-01T00:40:53.486Z,17.50
2022-12-01T00:42:26.917Z,18.40
2022-12-01T00:43:58.647Z,17.10
2022-12-01T00:45:30.555Z,17.30
2022-12-01T00:47:02.687Z,17.10
2022-12-01T00:48:37.204Z,17.60
2022-12-01T00:50:09.606Z,17.70
2022-12-01T00:51:41.639Z,18.40
2022-12-01T00:53:13.754Z,17.10
2022-12-01T00:54:46.633Z,18.00
2022-12-01T00:56:18.692Z,17.40
2022-12-01T00:57:50.891Z,17.90
2022-12-01T00:59:22.741Z,18.70
2022-12-01T01:01:04.177Z,14.40
2022-12-01T01:02:40.870Z,16.20
2022-12-01T01:04:12.823Z,16.90
2022-12-01T01:05:44.599Z,17.30
2022-12-01T01:09:15.464Z,16.60
2022-12-01T01:10:48.929Z,16.90
2022-12-01T01:12:21.287Z,17.70
2022-12-01T01:13:53.674Z,15.50
2022-12-01T01:15:25.744Z,17.50
2022-12-01T01:16:57.821Z,16.60
2022-12-01T01:18:30.271Z,16.20
2022-12-01T01:20:02.092Z,16.70
2022-12-01T01:21:34.023Z,15.80
2022-12-01T01:23:05.960Z,16.90
2022-12-01T01:24:38.437Z,16.40
2022-12-01T01:26:28.241Z,13.80
2022-12-01T01:28:00.426Z,14.00
2022-12-01T01:29:33.271Z,18.20
2022-12-01T01:31:11.962Z,17.20
2022-12-01T01:32:43.993Z,17.20
2022-12-01T01:34:16.122Z,16.30
2022-12-01T01:35:49.289Z,17.20
2022-12-01T01:37:21.099Z,18.70
2022-12-01T01:38:54.557Z,17.70
2022-12-01T01:40:26.402Z,18.70
2022-12-01T01:41:58.279Z,17.20
2022-12-01T01:43:43.512Z,17.20
2022-12-01T01:45:29.662Z,16.60
2022-12-01T01:47:01.473Z,16.40
2022-12-01T01:48:37.584Z,16.60
2022-12-01T01:50:14.855Z,16.70
2022-12-01T01:51:53.615Z,17.80
2022-12-01T01:53:25.709Z,15.30
2022-12-01T01:54:58.428Z,16.80
2022-12-01T01:56:31.450Z,15.20
2022-12-01T01:58:09.413Z,16.80
2022-12-01T01:59:49.273Z,15.50
2022-12-01T02:01:22.500Z,16.00
2022-12-01T02:02:57.211Z,14.00
2022-12-01T02:04:30.243Z,13.30
2022-12-01T02:06:05.130Z,14.70
2022-12-01T02:07:41.573Z,13.50
2022-12-01T02:09:13.629Z,15.00
2022-12-01T02:11:11.642Z,15.50
2022-12-01T02:13:32.532Z,13.80
2022-12-01T02:15:25.430Z,13.80
2022-12-01T02:17:22.514Z,12.80
2022-12-01T02:19:18.560Z,12.90
2022-12-01T02:21:23.978Z,12.60
2022-12-01T02:23:20.740Z,13.50
2022-12-01T02:25:43.860Z,12.80
2022-12-01T02:27:47.835Z,12.80
2022-12-01T02:29:56.766Z,13.70
2022-12-01T02:32:04.136Z,12.50
2022-12-01T02:33:48.445Z,12.50
2022-12-01T02:35:59.337Z,12.10
2022-12-01T02:37:57.320Z,12.70
2022-12-01T02:39:52.312Z,12.50
2022-12-01T02:41:56.911Z,11.90
2022-12-01T02:44:01.825Z,12.80
2022-12-01T02:45:49.760Z,12.90
2022-12-01T02:47:21.907Z,11.40
2022-12-01T02:49:02.099Z,13.10
2022-12-01T02:50:36.598Z,13.40
2022-12-01T02:52:11.389Z,12.70
2022-12-01T02:53:44.401Z,11.10
2022-12-01T02:55:16.350Z,13.10
2022-12-01T02:56:53.656Z,12.90
2022-12-01T02:58:25.468Z,13.70
2022-12-01T02:59:58.489Z,12.70
2022-12-01T03:02:12.890Z,13.00
2022-12-01T03:04:13.400Z,12.40
2022-12-01T03:06:21.613Z,13.00
2022-12-01T03:08:21.564Z,12.90
2022-12-01T03:10:05.342Z,12.30
2022-12-01T03:12:15.462Z,12.00
2022-12-01T03:14:08.676Z,11.40
2022-12-01T03:16:13.988Z,12.00
2022-12-01T03:18:15.079Z,11.90
2022-12-01T03:20:36.946Z,10.90
2022-12-01T03:22:22.967Z,11.00
2022-12-01T03:24:09.645Z,10.70
2022-12-01T03:25:46.661Z,12.20
2022-12-01T03:27:25.830Z,10.90
2022-12-01T03:29:13.045Z,10.90
2022-12-01T03:30:46.848Z,10.80
2022-12-01T03:32:34.057Z,11.40
2022-12-01T03:34:14.211Z,11.00
2022-12-01T03:36:15.273Z,12.00
2022-12-01T03:37:57.766Z,11.00
2022-12-01T03:39:34.526Z,11.80
2022-12-01T03:41:15.405Z,10.30
2022-12-01T03:42:59.737Z,11.60
2022-12-01T03:44:45.128Z,10.90
2022-12-01T03:46:44.809Z,11.90
2022-12-01T03:48:18.747Z,11.50
2022-12-01T03:49:54.172Z,11.00
2022-12-01T03:51:47.069Z,9.50
2022-12-01T03:53:29.202Z,10.10
2022-12-01T03:55:29.515Z,11.00
2022-12-01T03:57:10.677Z,10.60
2022-12-01T03:58:49.498Z,10.50
2022-12-01T04:00:22.941Z,10.70
2022-12-01T04:01:55.147Z,11.00
2022-12-01T04:03:27.149Z,11.20
2022-12-01T04:04:59.331Z,11.70
2022-12-01T04:06:31.144Z,11.10
2022-12-01T04:08:03.080Z,11.00
2022-12-01T04:09:34.925Z,11.00
2022-12-01T04:11:32.407Z,11.50
2022-12-01T04:13:05.661Z,11.30
2022-12-01T04:14:37.421Z,11.70
2022-12-01T04:16:09.250Z,11.90
2022-12-01T04:17:46.272Z,11.30
2022-12-01T04:19:18.120Z,12.00
2022-12-01T04:20:51.077Z,11.30
2022-12-01T04:22:24.293Z,12.40
2022-12-01T04:24:03.441Z,11.80
2022-12-01T04:25:35.818Z,12.10
2022-12-01T04:27:07.651Z,12.60
2022-12-01T04:28:39.498Z,11.90
2022-12-01T04:30:12.691Z,12.00
2022-12-01T04:31:44.530Z,11.10
2022-12-01T04:33:16.562Z,11.50
2022-12-01T04:34:48.423Z,8.70
2022-12-01T04:36:24.464Z,11.60
2022-12-01T04:37:57.755Z,11.30
2022-12-01T04:39:29.610Z,11.70
2022-12-01T04:41:01.401Z,11.70
2022-12-01T04:42:33.238Z,10.50
2022-12-01T04:44:07.979Z,11.30
2022-12-01T04:45:39.982Z,10.70
2022-12-01T04:47:11.955Z,12.00
2022-12-01T04:48:43.742Z,11.50
2022-12-01T04:50:17.057Z,11.60
2022-12-01T04:51:49.471Z,11.20
2022-12-01T04:53:22.587Z,11.10
2022-12-01T04:54:54.622Z,10.70
2022-12-01T04:56:26.410Z,11.60
2022-12-01T04:58:01.344Z,9.80
2022-12-01T04:59:33.420Z,9.80
2022-12-01T05:01:11.955Z,12.00
2022-12-01T05:02:44.600Z,11.20
2022-12-01T05:04:16.403Z,11.70
2022-12-01T05:05:48.239Z,11.50
2022-12-01T05:07:20.092Z,11.60
2022-12-01T05:09:00.352Z,11.10
2022-12-01T05:10:37.006Z,11.60
2022-12-01T05:12:09.001Z,11.50
2022-12-01T05:13:46.651Z,12.60
2022-12-01T05:15:20.034Z,12.30
2022-12-01T05:16:51.948Z,11.80
2022-12-01T05:18:23.891Z,11.90
2022-12-01T05:20:14.299Z,11.10
2022-12-01T05:21:49.558Z,11.70
2022-12-01T05:23:21.465Z,12.00
2022-12-01T05:24:53.293Z,11.80
2022-12-01T05:26:25.594Z,11.50
2022-12-01T05:27:57.865Z,11.60
2022-12-01T05:29:29.901Z,12.30
2022-12-01T05:31:02.486Z,12.10
2022-12-01T05:32:34.324Z,11.00
2022-12-01T05:34:08.686Z,11.90
2022-12-01T05:35:40.822Z,12.70
2022-12-01T05:37:12.668Z,12.60
2022-12-01T05:38:44.583Z,11.40
2022-12-01T05:40:16.470Z,8.20
2022-12-01T05:41:49.718Z,12.80
2022-12-01T05:43:28.764Z,12.90
2022-12-01T05:45:02.980Z,13.80
2022-12-01T05:46:34.736Z,12.40
2022-12-01T05:48:07.175Z,12.50
2022-12-01T05:49:38.886Z,13.50
2022-12-01T05:51:13.790Z,13.20
2022-12-01T05:52:45.646Z,13.00
2022-12-01T05:54:17.406Z,12.50
2022-12-01T05:55:55.007Z,13.00
2022-12-01T05:57:27.056Z,14.30
2022-12-01T05:59:02.229Z,12.70
2022-12-01T06:00:35.223Z,14.30
2022-12-01T06:02:08.051Z,14.70
2022-12-01T06:03:39.936Z,15.10
2022-12-01T06:05:12.217Z,15.20
2022-12-01T06:06:44.029Z,15.00
2022-12-01T06:08:16.263Z,14.20
2022-12-01T06:09:48.444Z,14.30
2022-12-01T06:11:21.864Z,14.00
2022-12-01T06:12:54.203Z,15.50
2022-12-01T06:14:26.385Z,14.80
2022-12-01T06:16:21.255Z,15.40
2022-12-01T06:18:02.966Z,15.80
2022-12-01T06:19:34.745Z,17.60
2022-12-01T06:21:07.453Z,18.20
2022-12-01T06:22:39.590Z,17.80
2022-12-01T06:24:11.762Z,17.10
2022-12-01T06:25:43.981Z,18.10
2022-12-01T06:27:15.846Z,18.80
2022-12-01T06:28:47.661Z,18.10
2022-12-01T06:30:24.161Z,17.70
2022-12-01T06:31:57.382Z,18.30
2022-12-01T06:33:29.383Z,18.20
2022-12-01T06:35:01.376Z,17.70
2022-12-01T06:36:34.302Z,18.20
2022-12-01T06:38:13.489Z,17.50
2022-12-01T06:39:45.280Z,17.50
2022-12-01T06:41:17.336Z,18.10
2022-12-01T06:42:49.883Z,17.20
2022-12-01T06:44:21.799Z,16.90
2022-12-01T06:45:59.439Z,17.90
2022-12-01T06:47:33.380Z,16.80
2022-12-01T06:49:08.456Z,16.80
2022-12-01T06:50:40.487Z,16.50
2022-12-01T06:52:12.272Z,17.00
2022-12-01T06:53:44.952Z,16.10
2022-12-01T06:55:17.467Z,15.10
2022-12-01T06:56:49.400Z,16.10
2022-12-01T06:58:22.871Z,16.20
2022-12-01T06:59:55.833Z,15.40
2022-12-01T07:01:28.615Z,14.90
2022-12-01T07:03:00.527Z,15.30
2022-12-01T07:04:32.316Z,15.80
2022-12-01T07:06:04.713Z,14.70
2022-12-01T07:07:40.320Z,15.80
2022-12-01T07:09:12.448Z,14.20
2022-12-01T07:10:44.211Z,13.90
2022-12-01T07:12:16.156Z,15.30
2022-12-01T07:13:50.779Z,14.20
2022-12-01T07:15:27.677Z,14.30
2022-12-01T07:17:01.798Z,14.80
2022-12-01T07:18:35.555Z,15.30
2022-12-01T07:20:13.694Z,15.90
2022-12-01T07:21:47.006Z,16.80
2022-12-01T07:23:18.873Z,16.10
2022-12-01T07:24:50.666Z,14.40
2022-12-01T07:26:22.707Z,14.00
2022-12-01T07:27:54.538Z,15.40
2022-12-01T07:29:26.411Z,16.20
2022-12-01T07:31:07.726Z,15.60
2022-12-01T07:32:40.500Z,16.20
2022-12-01T07:34:15.966Z,16.40
2022-12-01T07:35:47.821Z,15.40
2022-12-01T07:37:19.594Z,14.90
2022-12-01T07:38:51.823Z,14.90
2022-12-01T07:40:23.997Z,15.50
2022-12-01T07:41:56.189Z,15.30
2022-12-01T07:43:29.336Z,15.80
2022-12-01T07:45:01.557Z,15.50
2022-12-01T07:46:33.512Z,16.20
2022-12-01T07:48:05.841Z,16.60
2022-12-01T07:49:38.059Z,15.40
2022-12-01T07:51:16.186Z,16.70
2022-12-01T07:52:51.653Z,16.90
2022-12-01T07:54:25.506Z,16.70
2022-12-01T07:56:02.073Z,17.40
2022-12-01T07:57:37.458Z,16.80
2022-12-01T07:59:09.655Z,17.90
2022-12-01T08:00:41.575Z,18.40
2022-12-01T08:02:15.504Z,16.70
2022-12-01T08:03:56.577Z,17.50
2022-12-01T08:05:28.502Z,17.10
2022-12-01T08:07:00.403Z,18.30
2022-12-01T08:08:35.636Z,17.60
2022-12-01T08:10:08.188Z,17.40
2022-12-01T08:11:40.333Z,16.30
2022-12-01T08:13:17.177Z,16.70
2022-12-01T08:14:49.394Z,17.50
2022-12-01T08:16:23.785Z,16.80
2022-12-01T08:17:55.667Z,17.10
2022-12-01T08:19:29.491Z,15.90
2022-12-01T08:21:01.909Z,16.10
2022-12-01T08:22:35.852Z,16.40
2022-12-01T08:24:08.234Z,16.10
2022-12-01T08:25:40.119Z,14.70
2022-12-01T08:27:11.968Z,13.60
2022-12-01T08:28:45.301Z,13.10
2022-12-01T08:30:17.266Z,12.90
2022-12-01T08:31:49.159Z,13.60
2022-12-01T08:33:21.280Z,13.50
2022-12-01T08:34:53.719Z,13.30
2022-12-01T08:36:26.461Z,12.60
2022-12-01T08:37:58.996Z,13.50
2022-12-01T08:39:30.789Z,13.00
2022-12-01T08:41:07.362Z,13.00
2022-12-01T08:42:39.155Z,12.50
2022-12-01T08:44:11.323Z,13.50
2022-12-01T08:45:43.162Z,13.40
2022-12-01T08:47:18.753Z,13.30
2022-12-01T08:48:53.574Z,13.30
2022-12-01T08:50:48.338Z,14.30
2022-12-01T08:52:20.499Z,13.10
2022-12-01T08:53:52.352Z,13.40
2022-12-01T08:55:29.530Z,13.20
2022-12-01T08:57:01.493Z,12.70
2022-12-01T08:58:35.384Z,12.90
2022-12-01T09:00:10.323Z,12.20
2022-12-01T09:01:54.273Z,12.20
2022-12-01T09:03:29.080Z,12.50
2022-12-01T09:05:00.874Z,12.00
2022-12-01T09:06:40.159Z,11.90
2022-12-01T09:08:41.374Z,11.00
2022-12-01T09:10:14.148Z,11.10
2022-12-01T09:11:48.275Z,9.50
2022-12-01T09:13:22.830Z,9.80
2022-12-01T09:14:54.726Z,11.30
2022-12-01T09:16:26.709Z,11.00
2022-12-01T09:17:58.544Z,10.50
2022-12-01T09:19:30.683Z,10.40
2022-12-01T09:21:26.115Z,11.00
2022-12-01T09:22:57.894Z,8.40
2022-12-01T09:24:29.730Z,10.30
2022-12-01T09:26:02.723Z,10.30
2022-12-01T09:27:34.537Z,9.50
2022-12-01T09:29:10.675Z,8.90
2022-12-01T09:30:42.676Z,9.10
2022-12-01T09:32:14.593Z,10.40
2022-12-01T09:33:48.021Z,11.10
2022-12-01T09:35:23.436Z,9.70
2022-12-01T09:36:58.510Z,9.90
2022-12-01T09:38:33.321Z,10.40
2022-12-01T09:40:07.555Z,9.40
2022-12-01T09:41:54.642Z,10.20
2022-12-01T09:43:41.527Z,11.40
2022-12-01T09:45:31.893Z,10.20
2022-12-01T09:47:13.878Z,11.00
2022-12-01T09:48:50.380Z,11.00
2022-12-01T09:50:25.512Z,11.30
2022-12-01T09:52:00.441Z,10.10
2022-12-01T09:53:32.198Z,11.50
2022-12-01T09:55:12.397Z,11.30
2022-12-01T09:56:53.031Z,10.70
2022-12-01T09:58:33.762Z,10.20
2022-12-01T10:00:20.143Z,10.40
2022-12-01T10:02:01.311Z,10.10
2022-12-01T10:03:50.717Z,11.40
2022-12-01T10:05:29.853Z,9.90
2022-12-01T10:07:26.207Z,9.90
2022-12-01T10:09:16.342Z,10.60
2022-12-01T10:10:55.682Z,10.20
2022-12-01T10:12:35.182Z,12.00
2022-12-01T10:14:20.399Z,11.40
2022-12-01T10:16:14.660Z,10.30
2022-12-01T10:18:19.212Z,10.60
2022-12-01T10:20:02.828Z,10.80
2022-12-01T10:21:43.132Z,12.10
2022-12-01T10:23:46.753Z,10.80
2022-12-01T10:25:27.902Z,11.80
2022-12-01T10:27:11.833Z,11.70
2022-12-01T10:29:21.627Z,11.80
2022-12-01T10:31:07.407Z,12.20
2022-12-01T10:33:00.021Z,12.40
2022-12-01T10:34:43.745Z,12.80
2022-12-01T10:36:15.510Z,12.40
2022-12-01T10:37:56.466Z,12.60
2022-12-01T10:39:40.022Z,13.00
2022-12-01T10:41:18.708Z,13.90
2022-12-01T10:42:51.731Z,13.80
2022-12-01T10:44:23.601Z,13.60
2022-12-01T10:45:58.643Z,13.50
2022-12-01T10:47:32.278Z,12.80
2022-12-01T10:49:12.356Z,12.00
2022-12-01T10:50:47.421Z,14.50
2022-12-01T10:52:38.456Z,14.40
2022-12-01T10:54:12.075Z,14.10
2022-12-01T10:55:47.902Z,14.20
2022-12-01T10:57:22.794Z,14.10
2022-12-01T10:59:02.794Z,15.70
2022-12-01T11:00:59.633Z,12.90
2022-12-01T11:02:33.952Z,14.80
2022-12-01T11:04:28.980Z,15.70
2022-12-01T11:06:08.618Z,16.50
2022-12-01T11:07:47.389Z,15.80
2022-12-01T11:09:26.594Z,15.50
2022-12-01T11:11:01.522Z,15.90
2022-12-01T11:12:34.219Z,15.90
2022-12-01T11:14:53.400Z,16.80
2022-12-01T11:16:47.413Z,16.00
2022-12-01T11:18:37.833Z,17.80
2022-12-01T11:20:39.327Z,17.10
2022-12-01T11:22:32.030Z,15.60
2022-12-01T11:24:33.514Z,16.90
2022-12-01T11:26:17.785Z,17.00
2022-12-01T11:27:57.598Z,19.60
2022-12-01T11:29:38.844Z,19.70
2022-12-01T11:31:12.225Z,19.60
2022-12-01T11:32:54.334Z,19.30
2022-12-01T11:34:31.385Z,19.50
2022-12-01T11:36:03.291Z,19.80
2022-12-01T11:37:54.819Z,20.20
2022-12-01T11:39:38.384Z,20.20
2022-12-01T11:41:34.339Z,21.10
2022-12-01T11:43:07.046Z,19.30
2022-12-01T11:44:51.494Z,20.40
2022-12-01T11:46:46.258Z,21.10
2022-12-01T11:48:32.772Z,21.50
2022-12-01T11:50:26.194Z,21.40
2022-12-01T11:51:59.668Z,21.30
2022-12-01T11:53:43.313Z,20.20
2022-12-01T11:55:16.483Z,19.60
2022-12-01T11:57:10.655Z,21.70
2022-12-01T11:58:55.233Z,21.70
2022-12-01T12:00:51.241Z,20.20
2022-12-01T12:02:51.593Z,18.10
2022-12-01T12:05:06.751Z,19.40
2022-12-01T12:07:19.238Z,19.80
2022-12-01T12:09:09.873Z,19.20
2022-12-01T12:11:29.652Z,19.70
2022-12-01T12:13:17.673Z,19.90
2022-12-01T12:15:21.107Z,20.00
2022-12-01T12:17:11.489Z,17.70
2022-12-01T12:18:58.041Z,19.70
2022-12-01T12:20:48.133Z,19.20
2022-12-01T12:23:01.900Z,19.40
2022-12-01T12:24:59.909Z,20.60
2022-12-01T12:26:59.921Z,20.80
2022-12-01T12:28:45.598Z,20.40
2022-12-01T12:30:35.852Z,18.40
2022-12-01T12:32:28.665Z,20.10
2022-12-01T12:34:36.038Z,21.10
2022-12-01T12:36:47.838Z,19.90
2022-12-01T12:39:16.958Z,21.10
2022-12-01T12:41:24.739Z,21.20
2022-12-01T12:43:39.598Z,20.20
2022-12-01T12:45:44.063Z,20.70
2022-12-01T12:47:47.778Z,19.80
2022-12-01T12:50:10.164Z,20.40
2022-12-01T12:51:56.968Z,19.60
2022-12-01T12:53:49.055Z,20.40
2022-12-01T12:55:49.896Z,20.80
2022-12-01T12:57:28.641Z,20.80
2022-12-01T12:59:11.899Z,22.00
2022-12-01T13:00:53.774Z,21.50
2022-12-01T13:03:00.667Z,21.50
2022-12-01T13:05:24.028Z,20.20
2022-12-01T13:07:16.021Z,20.40
2022-12-01T13:08:57.319Z,19.50
2022-12-01T13:21:23.982Z,24.60
2022-12-01T13:23:01.353Z,23.20
2022-12-01T13:24:33.592Z,22.80
2022-12-01T13:26:10.424Z,18.70
2022-12-01T13:27:52.465Z,22.50
2022-12-01T13:29:27.315Z,22.50
2022-12-01T13:31:16.683Z,22.50
2022-12-01T13:32:58.683Z,21.70
2022-12-01T13:34:48.738Z,21.90
2022-12-01T13:36:45.855Z,23.00
2022-12-01T13:38:22.985Z,20.40
2022-12-01T13:39:56.919Z,22.70
2022-12-01T13:41:34.364Z,20.40
2022-12-01T13:43:21.853Z,20.80
2022-12-01T13:45:02.513Z,22.60
2022-12-01T13:46:43.828Z,23.00
2022-12-01T13:48:42.982Z,23.20
2022-12-01T13:50:53.225Z,21.20
2022-12-01T13:52:32.774Z,22.70
2022-12-01T14:07:40.219Z,20.50
2022-12-01T14:09:40.550Z,21.90
2022-12-01T14:11:21.466Z,20.30
2022-12-01T14:13:04.537Z,20.60
2022-12-01T14:14:55.985Z,20.90
2022-12-01T14:16:58.676Z,20.80
2022-12-01T14:18:39.589Z,19.80
2022-12-01T14:20:14.635Z,20.40
2022-12-01T14:21:49.741Z,20.30
2022-12-01T14:23:33.795Z,19.40
2022-12-01T14:25:21.173Z,19.60
2022-12-01T14:26:53.782Z,20.60
2022-12-01T14:28:59.802Z,19.80
2022-12-01T14:30:46.884Z,20.10
2022-12-01T14:32:21.854Z,22.00
2022-12-01T14:34:10.369Z,21.00
2022-12-01T14:35:46.390Z,20.30
2022-12-01T14:37:26.071Z,21.40
2022-12-01T14:38:58.151Z,20.30
2022-12-01T14:40:30.887Z,21.70
2022-12-01T14:42:59.050Z,21.10
2022-12-01T14:44:33.967Z,21.10
2022-12-01T14:46:21.200Z,21.10
2022-12-01T14:48:06.253Z,20.40
2022-12-01T14:50:18.681Z,21.20
2022-12-01T14:51:58.882Z,21.80
2022-12-01T14:53:40.789Z,21.20
2022-12-01T14:55:26.304Z,20.30
2022-12-01T14:57:07.483Z,20.70
2022-12-01T14:58:53.260Z,20.40
2022-12-01T15:00:25.644Z,21.80
2022-12-01T15:02:10.211Z,21.20
2022-12-01T15:03:48.820Z,18.40
2022-12-01T15:05:27.630Z,19.00
2022-12-01T15:07:00.091Z,20.20
2022-12-01T15:10:38.666Z,20.60
2022-12-01T15:12:29.508Z,22.10
2022-12-01T15:14:01.428Z,19.70
2022-12-01T15:15:33.201Z,19.90
2022-12-01T15:17:09.340Z,21.10
2022-12-01T15:18:41.430Z,20.90
2022-12-01T15:20:41.217Z,20.90
2022-12-01T15:22:18.602Z,21.10
2022-12-01T15:24:01.244Z,21.70
2022-12-01T15:25:38.366Z,20.40
2022-12-01T15:27:30.131Z,21.40
2022-12-01T15:29:31.713Z,21.00
2022-12-01T15:31:12.838Z,19.70
2022-12-01T15:32:45.894Z,21.10
2022-12-01T15:34:53.667Z,23.00
2022-12-01T15:36:25.751Z,22.70
2022-12-01T15:37:58.259Z,22.00
2022-12-01T15:39:45.574Z,23.80
2022-12-01T15:41:28.969Z,21.90
2022-12-01T15:43:21.272Z,22.40
2022-12-01T15:45:05.088Z,22.30
2022-12-01T15:46:36.871Z,22.30
2022-12-01T15:48:18.208Z,20.20
2022-12-01T15:49:50.118Z,21.60
2022-12-01T15:51:27.509Z,23.50
2022-12-01T15:53:29.818Z,22.10
2022-12-01T15:55:04.751Z,23.70
2022-12-01T15:56:41.399Z,20.80
2022-12-01T15:58:25.548Z,22.40
2022-12-01T15:59:57.653Z,22.40
2022-12-01T16:01:32.182Z,22.30
2022-12-01T16:03:04.963Z,22.40
2022-12-01T16:04:37.762Z,22.30
2022-12-01T16:06:12.989Z,21.70
2022-12-01T16:09:57.982Z,22.00
2022-12-01T16:11:30.410Z,22.60
2022-12-01T16:13:43.561Z,21.90
2022-12-01T16:15:22.814Z,22.90
2022-12-01T16:16:55.004Z,22.20
2022-12-01T16:18:34.285Z,23.20
2022-12-01T16:20:38.496Z,21.00
2022-12-01T16:22:10.200Z,22.80
2022-12-01T16:23:42.428Z,22.20
2022-12-01T16:25:29.852Z,22.80
2022-12-01T16:27:04.070Z,22.40
2022-12-01T16:28:36.240Z,22.20
2022-12-01T16:30:23.147Z,21.90
2022-12-01T16:34:18.495Z,22.30
2022-12-01T16:35:55.830Z,21.80
2022-12-01T16:37:28.197Z,22.40
2022-12-01T16:39:00.157Z,22.80
2022-12-01T16:40:32.982Z,21.60
2022-12-01T16:42:05.040Z,23.00
2022-12-01T16:43:36.831Z,20.70
2022-12-01T16:46:57.986Z,20.60
2022-12-01T16:48:32.581Z,20.80
2022-12-01T16:50:04.908Z,21.00
2022-12-01T16:51:54.731Z,19.20
2022-12-01T16:53:28.554Z,19.90
2022-12-01T16:55:00.351Z,19.30
2022-12-01T16:56:32.856Z,17.70
2022-12-01T16:58:05.084Z,19.80
2022-12-01T16:59:37.648Z,18.60
2022-12-01T17:01:09.998Z,13.80
2022-12-01T17:02:42.003Z,19.00
2022-12-01T17:04:14.106Z,18.10
2022-12-01T17:06:07.622Z,16.10
2022-12-01T17:07:39.559Z,17.20
2022-12-01T17:09:11.586Z,17.60
2022-12-01T17:10:47.620Z,18.30
2022-12-01T17:12:19.549Z,17.30
2022-12-01T17:13:51.417Z,16.60
2022-12-01T17:15:23.425Z,17.80
2022-12-01T17:16:55.169Z,16.80
2022-12-01T17:18:27.294Z,17.20
2022-12-01T17:20:36.980Z,16.30
2022-12-01T17:22:09.161Z,16.90
2022-12-01T17:23:41.056Z,16.20
2022-12-01T17:25:14.128Z,15.80
2022-12-01T17:26:46.054Z,17.60
2022-12-01T17:28:18.129Z,17.20
2022-12-01T17:29:50.124Z,17.10
2022-12-01T17:31:44.629Z,17.30
2022-12-01T17:33:17.174Z,16.00
2022-12-01T17:34:49.574Z,17.40
2022-12-01T17:36:22.727Z,16.70
2022-12-01T17:37:54.660Z,17.30
2022-12-01T17:39:27.941Z,16.30
2022-12-01T17:41:23.188Z,16.40
2022-12-01T17:42:55.024Z,16.70
2022-12-01T17:45:15.261Z,14.90
2022-12-01T17:46:48.969Z,17.30
2022-12-01T17:48:21.866Z,14.40
2022-12-01T17:49:54.545Z,16.70
2022-12-01T17:51:26.423Z,17.00
2022-12-01T17:52:58.418Z,16.40
2022-12-01T17:54:30.910Z,17.30
2022-12-01T17:56:14.822Z,16.60
2022-12-01T17:57:46.794Z,16.20
2022-12-01T17:59:18.697Z,16.30
2022-12-01T18:00:52.561Z,13.90
2022-12-01T18:02:24.559Z,14.00
2022-12-01T18:03:57.874Z,15.50
2022-12-01T18:05:29.668Z,12.90
2022-12-01T18:07:01.624Z,15.90
2022-12-01T18:08:36.742Z,16.70
2022-12-01T18:10:09.276Z,15.90
2022-12-01T18:11:41.043Z,16.60
2022-12-01T18:13:12.776Z,16.50
2022-12-01T18:14:44.468Z,14.70
2022-12-01T18:16:26.623Z,15.50
2022-12-01T18:17:58.440Z,16.50
2022-12-01T18:19:30.510Z,17.70
2022-12-01T18:21:06.773Z,13.40
2022-12-01T18:22:38.501Z,14.30
2022-12-01T18:24:10.693Z,16.00
2022-12-01T18:25:42.539Z,16.10
2022-12-01T18:27:14.769Z,16.40
2022-12-01T18:28:46.617Z,15.80
2022-12-01T18:30:18.969Z,15.70
2022-12-01T18:31:53.441Z,16.10
2022-12-01T18:33:25.155Z,14.70
2022-12-01T18:34:57.032Z,14.10
2022-12-01T18:36:30.402Z,15.10
2022-12-01T18:38:02.434Z,15.00
2022-12-01T18:39:34.841Z,16.10
2022-12-01T18:41:07.346Z,15.60
2022-12-01T18:42:41.305Z,15.30
2022-12-01T18:44:13.460Z,13.50
2022-12-01T18:45:45.477Z,16.10
2022-12-01T18:47:17.247Z,16.50
2022-12-01T18:48:53.135Z,15.80
2022-12-01T18:50:25.008Z,15.80
2022-12-01T18:51:58.306Z,15.20
2022-12-01T18:53:30.754Z,15.50
2022-12-01T18:55:02.709Z,11.70
2022-12-01T18:56:35.272Z,16.10
2022-12-01T18:58:07.311Z,12.80
2022-12-01T18:59:39.036Z,15.70
2022-12-01T19:01:23.144Z,15.60
2022-12-01T19:02:54.999Z,15.90
2022-12-01T19:04:26.717Z,13.10
2022-12-01T19:05:59.169Z,16.10
2022-12-01T19:07:31.005Z,15.10
2022-12-01T19:09:06.270Z,15.80
2022-12-01T19:10:38.086Z,15.00
2022-12-01T19:12:09.918Z,15.30
2022-12-01T19:13:41.882Z,15.90
2022-12-01T19:15:13.752Z,13.50
2022-12-01T19:16:46.589Z,15.50
2022-12-01T19:18:18.488Z,15.10
2022-12-01T19:19:50.251Z,14.40
2022-12-01T19:21:22.874Z,16.80
2022-12-01T19:22:54.655Z,17.90
2022-12-01T19:24:26.602Z,18.00
2022-12-01T19:25:59.028Z,16.90
2022-12-01T19:27:31.017Z,17.60
2022-12-01T19:29:04.685Z,16.60
2022-12-01T19:30:37.089Z,18.10
2022-12-01T19:32:09.324Z,15.50
2022-12-01T19:33:41.611Z,16.60
2022-12-01T19:35:13.483Z,16.10
2022-12-01T19:36:45.245Z,15.50
2022-12-01T19:38:17.055Z,14.90
2022-12-01T19:39:48.842Z,14.80
2022-12-01T19:42:56.959Z,14.60
2022-12-01T19:44:28.817Z,13.90
2022-12-01T19:46:09.437Z,12.80
2022-12-01T19:47:41.266Z,14.60
2022-12-01T19:49:14.634Z,14.40
2022-12-01T19:50:46.534Z,13.80
2022-12-01T19:52:18.351Z,13.90
2022-12-01T19:53:51.367Z,11.70
2022-12-01T19:55:23.316Z,13.00
2022-12-01T19:56:55.630Z,12.50
2022-12-01T19:58:27.654Z,12.20
2022-12-01T19:59:59.501Z,12.20
2022-12-01T20:01:31.384Z,13.30
2022-12-01T20:03:04.842Z,12.40
2022-12-01T20:04:40.790Z,12.70
2022-12-01T20:06:29.642Z,12.40
2022-12-01T20:08:02.936Z,14.10
2022-12-01T20:09:35.010Z,12.10
2022-12-01T20:11:07.681Z,12.60
2022-12-01T20:12:39.542Z,14.40
2022-12-01T20:14:11.751Z,14.40
2022-12-01T20:15:44.887Z,14.40
2022-12-01T20:17:17.270Z,13.80
2022-12-01T20:18:51.607Z,9.40
2022-12-01T20:20:23.389Z,15.10
2022-12-01T20:21:55.135Z,15.00
2022-12-01T20:23:26.861Z,14.70
2022-12-01T20:24:59.683Z,12.90
2022-12-01T20:26:36.703Z,15.30
2022-12-01T20:28:09.003Z,10.60
2022-12-01T20:29:40.885Z,15.20
2022-12-01T20:31:19.355Z,16.20
2022-12-01T20:32:51.231Z,14.50
2022-12-01T20:34:32.080Z,14.70
2022-12-01T20:49:40.656Z,16.10
2022-12-01T20:51:14.855Z,16.00
2022-12-01T20:52:46.663Z,16.60
2022-12-01T20:54:27.915Z,15.40
2022-12-01T20:56:10.514Z,17.00
2022-12-01T20:57:42.494Z,16.50
2022-12-01T20:59:14.430Z,15.80
2022-12-01T21:00:46.242Z,16.80
2022-12-01T21:02:18.236Z,17.10
2022-12-01T21:03:51.323Z,16.30
2022-12-01T21:05:27.501Z,15.60
2022-12-01T21:06:59.399Z,10.80
2022-12-01T21:08:32.125Z,16.70
2022-12-01T21:10:05.753Z,17.00
2022-12-01T21:12:09.552Z,18.20
2022-12-01T21:13:44.151Z,17.00
2022-12-01T21:15:29.752Z,18.00
2022-12-01T21:17:54.105Z,15.80
2022-12-01T21:20:01.688Z,17.30
2022-12-01T21:21:40.727Z,14.80
2022-12-01T21:23:17.058Z,14.30
2022-12-01T21:24:53.770Z,15.00
2022-12-01T21:26:26.432Z,13.80
2022-12-01T21:28:05.049Z,16.30
2022-12-01T21:29:44.092Z,17.50
2022-12-01T21:31:16.138Z,15.70
2022-12-01T21:32:54.136Z,17.00
2022-12-01T21:34:34.225Z,16.20
2022-12-01T21:36:19.462Z,16.20
2022-12-01T21:38:00.450Z,14.90
2022-12-01T21:39:35.004Z,17.30
2022-12-01T21:41:29.729Z,13.70
2022-12-01T21:43:35.163Z,16.00
2022-12-01T21:45:29.082Z,13.90
2022-12-01T21:47:19.277Z,14.00
2022-12-01T21:48:55.346Z,15.30
2022-12-01T21:50:27.849Z,15.60
2022-12-01T21:52:00.641Z,16.00
2022-12-01T21:53:39.742Z,14.70
2022-12-01T21:55:14.365Z,14.70
2022-12-01T21:56:49.876Z,16.90
2022-12-01T21:58:34.355Z,16.60
2022-12-01T22:00:33.482Z,17.30
2022-12-01T22:02:48.183Z,15.40
2022-12-01T22:04:24.429Z,13.60
2022-12-01T22:06:28.322Z,16.70
2022-12-01T22:08:00.714Z,16.30
2022-12-01T22:09:37.034Z,17.00